sensor_id;sensor_type;location;lat;lon;timestamp;P1;durP1;ratioP1;P2;durP2;ratioP2
73776;SDS011;62088;50.240;2.696;2024-01-11T00:00:32;20.55;;;8.93;;
73776;SDS011;62088;50.240;2.696;2024-01-11T00:03:00;17.17;;;8.52;;
73776;SDS011;62088;50.240;2.696;2024-01-11T00:05:27;18.40;;;9.00;;
73776;SDS011;62088;50.240;2.696;2024-01-11T00:07:54;19.02;;;9.18;;
73776;SDS011;62088;50.240;2.696;2024-01-11T00:10:22;19.23;;;8.88;;
73776;SDS011;62088;50.240;2.696;2024-01-11T00:12:49;19.65;;;9.00;;
73776;SDS011;62088;50.240;2.696;2024-01-11T00:15:16;16.20;;;7.75;;
73776;SDS011;62088;50.240;2.696;2024-01-11T00:17:44;17.60;;;8.15;;
73776;SDS011;62088;50.240;2.696;2024-01-11T00:20:12;22.17;;;9.48;;
73776;SDS011;62088;50.240;2.696;2024-01-11T00:22:39;17.77;;;9.20;;
73776;SDS011;62088;50.240;2.696;2024-01-11T00:25:06;16.67;;;9.00;;
73776;SDS011;62088;50.240;2.696;2024-01-11T00:27:34;17.02;;;8.88;;
73776;SDS011;62088;50.240;2.696;2024-01-11T00:30:02;26.30;;;8.95;;
73776;SDS011;62088;50.240;2.696;2024-01-11T00:32:29;20.83;;;8.60;;
73776;SDS011;62088;50.240;2.696;2024-01-11T00:34:56;20.55;;;9.93;;
73776;SDS011;62088;50.240;2.696;2024-01-11T00:37:23;14.65;;;8.13;;
73776;SDS011;62088;50.240;2.696;2024-01-11T00:39:51;17.70;;;10.27;;
73776;SDS011;62088;50.240;2.696;2024-01-11T00:42:18;19.58;;;9.82;;
73776;SDS011;62088;50.240;2.696;2024-01-11T00:44:45;36.55;;;10.20;;
73776;SDS011;62088;50.240;2.696;2024-01-11T00:47:12;19.38;;;8.90;;
73776;SDS011;62088;50.240;2.696;2024-01-11T00:49:40;19.08;;;10.20;;
73776;SDS011;62088;50.240;2.696;2024-01-11T00:52:07;22.10;;;9.00;;
73776;SDS011;62088;50.240;2.696;2024-01-11T00:54:35;18.85;;;9.75;;
73776;SDS011;62088;50.240;2.696;2024-01-11T00:57:02;19.75;;;9.07;;
73776;SDS011;62088;50.240;2.696;2024-01-11T00:59:29;19.98;;;9.13;;
73776;SDS011;62088;50.240;2.696;2024-01-11T01:01:56;14.38;;;7.30;;
73776;SDS011;62088;50.240;2.696;2024-01-11T01:04:23;21.15;;;9.82;;
73776;SDS011;62088;50.240;2.696;2024-01-11T01:06:51;15.75;;;9.02;;
73776;SDS011;62088;50.240;2.696;2024-01-11T01:09:18;15.48;;;8.68;;
73776;SDS011;62088;50.240;2.696;2024-01-11T01:11:45;18.52;;;8.50;;
73776;SDS011;62088;50.240;2.696;2024-01-11T01:14:12;22.52;;;11.15;;
73776;SDS011;62088;50.240;2.696;2024-01-11T01:16:39;20.25;;;9.60;;
73776;SDS011;62088;50.240;2.696;2024-01-11T01:19:06;16.83;;;7.95;;
73776;SDS011;62088;50.240;2.696;2024-01-11T01:21:34;17.42;;;9.93;;
73776;SDS011;62088;50.240;2.696;2024-01-11T01:24:01;20.40;;;9.70;;
73776;SDS011;62088;50.240;2.696;2024-01-11T01:26:28;18.88;;;8.48;;
73776;SDS011;62088;50.240;2.696;2024-01-11T01:28:55;16.30;;;9.45;;
73776;SDS011;62088;50.240;2.696;2024-01-11T01:31:22;15.68;;;8.15;;
73776;SDS011;62088;50.240;2.696;2024-01-11T01:33:49;21.80;;;8.93;;
73776;SDS011;62088;50.240;2.696;2024-01-11T01:36:16;16.00;;;8.00;;
73776;SDS011;62088;50.240;2.696;2024-01-11T01:38:43;19.48;;;9.55;;
73776;SDS011;62088;50.240;2.696;2024-01-11T01:41:11;14.55;;;8.10;;
73776;SDS011;62088;50.240;2.696;2024-01-11T01:43:39;14.70;;;8.77;;
73776;SDS011;62088;50.240;2.696;2024-01-11T01:46:06;19.17;;;9.43;;
73776;SDS011;62088;50.240;2.696;2024-01-11T01:48:33;18.48;;;8.82;;
73776;SDS011;62088;50.240;2.696;2024-01-11T01:51:01;15.77;;;7.32;;
73776;SDS011;62088;50.240;2.696;2024-01-11T01:53:29;20.52;;;9.95;;
73776;SDS011;62088;50.240;2.696;2024-01-11T01:55:56;18.67;;;9.40;;
73776;SDS011;62088;50.240;2.696;2024-01-11T01:58:24;16.15;;;9.25;;
73776;SDS011;62088;50.240;2.696;2024-01-11T02:00:51;16.50;;;7.95;;
73776;SDS011;62088;50.240;2.696;2024-01-11T02:03:19;22.13;;;9.15;;
73776;SDS011;62088;50.240;2.696;2024-01-11T02:05:48;20.00;;;10.65;;
73776;SDS011;62088;50.240;2.696;2024-01-11T02:08:18;15.43;;;8.73;;
73776;SDS011;62088;50.240;2.696;2024-01-11T02:10:48;22.85;;;10.75;;
73776;SDS011;62088;50.240;2.696;2024-01-11T02:13:15;20.25;;;10.63;;
73776;SDS011;62088;50.240;2.696;2024-01-11T02:15:43;16.88;;;9.40;;
73776;SDS011;62088;50.240;2.696;2024-01-11T02:18:12;19.83;;;9.00;;
73776;SDS011;62088;50.240;2.696;2024-01-11T02:20:39;26.25;;;10.00;;
73776;SDS011;62088;50.240;2.696;2024-01-11T02:23:08;15.73;;;8.15;;
73776;SDS011;62088;50.240;2.696;2024-01-11T02:25:38;27.13;;;10.95;;
73776;SDS011;62088;50.240;2.696;2024-01-11T02:28:06;14.80;;;7.70;;
73776;SDS011;62088;50.240;2.696;2024-01-11T02:30:34;18.08;;;8.38;;
73776;SDS011;62088;50.240;2.696;2024-01-11T02:33:02;19.08;;;8.20;;
73776;SDS011;62088;50.240;2.696;2024-01-11T02:35:31;17.63;;;9.13;;
73776;SDS011;62088;50.240;2.696;2024-01-11T02:37:59;13.55;;;8.07;;
73776;SDS011;62088;50.240;2.696;2024-01-11T02:40:27;19.17;;;10.77;;
73776;SDS011;62088;50.240;2.696;2024-01-11T02:42:55;25.77;;;10.85;;
73776;SDS011;62088;50.240;2.696;2024-01-11T02:45:22;24.05;;;9.52;;
73776;SDS011;62088;50.240;2.696;2024-01-11T02:47:49;20.63;;;10.93;;
73776;SDS011;62088;50.240;2.696;2024-01-11T02:50:17;16.75;;;9.13;;
73776;SDS011;62088;50.240;2.696;2024-01-11T02:52:44;17.77;;;8.77;;
73776;SDS011;62088;50.240;2.696;2024-01-11T02:55:11;22.02;;;10.73;;
73776;SDS011;62088;50.240;2.696;2024-01-11T02:57:39;17.75;;;8.57;;
73776;SDS011;62088;50.240;2.696;2024-01-11T03:00:06;24.55;;;11.95;;
73776;SDS011;62088;50.240;2.696;2024-01-11T03:02:33;13.88;;;8.50;;
73776;SDS011;62088;50.240;2.696;2024-01-11T03:05:01;27.85;;;7.97;;
73776;SDS011;62088;50.240;2.696;2024-01-11T03:07:28;21.65;;;10.70;;
73776;SDS011;62088;50.240;2.696;2024-01-11T03:09:56;18.45;;;9.63;;
73776;SDS011;62088;50.240;2.696;2024-01-11T03:12:23;23.15;;;9.57;;
73776;SDS011;62088;50.240;2.696;2024-01-11T03:14:52;22.15;;;9.93;;
73776;SDS011;62088;50.240;2.696;2024-01-11T03:17:19;17.30;;;9.30;;
73776;SDS011;62088;50.240;2.696;2024-01-11T03:19:46;22.73;;;10.25;;
73776;SDS011;62088;50.240;2.696;2024-01-11T03:22:13;42.30;;;10.32;;
73776;SDS011;62088;50.240;2.696;2024-01-11T03:24:40;19.33;;;10.02;;
73776;SDS011;62088;50.240;2.696;2024-01-11T03:27:08;23.05;;;10.27;;
73776;SDS011;62088;50.240;2.696;2024-01-11T03:29:35;22.65;;;8.88;;
73776;SDS011;62088;50.240;2.696;2024-01-11T03:32:02;18.05;;;8.93;;
73776;SDS011;62088;50.240;2.696;2024-01-11T03:34:29;24.33;;;9.32;;
73776;SDS011;62088;50.240;2.696;2024-01-11T03:36:56;24.70;;;10.52;;
73776;SDS011;62088;50.240;2.696;2024-01-11T03:39:24;14.23;;;7.72;;
73776;SDS011;62088;50.240;2.696;2024-01-11T03:41:52;13.77;;;8.45;;
73776;SDS011;62088;50.240;2.696;2024-01-11T03:44:19;14.88;;;8.00;;
73776;SDS011;62088;50.240;2.696;2024-01-11T03:46:46;19.40;;;9.77;;
73776;SDS011;62088;50.240;2.696;2024-01-11T03:49:13;20.42;;;9.48;;
73776;SDS011;62088;50.240;2.696;2024-01-11T03:51:40;22.20;;;10.30;;
73776;SDS011;62088;50.240;2.696;2024-01-11T03:54:08;20.30;;;10.55;;
73776;SDS011;62088;50.240;2.696;2024-01-11T03:56:38;13.95;;;7.75;;
73776;SDS011;62088;50.240;2.696;2024-01-11T03:59:08;25.13;;;9.18;;
73776;SDS011;62088;50.240;2.696;2024-01-11T04:01:40;15.55;;;8.27;;
73776;SDS011;62088;50.240;2.696;2024-01-11T04:04:07;17.02;;;8.43;;
73776;SDS011;62088;50.240;2.696;2024-01-11T04:06:35;23.45;;;10.52;;
73776;SDS011;62088;50.240;2.696;2024-01-11T04:09:02;18.02;;;10.02;;
73776;SDS011;62088;50.240;2.696;2024-01-11T04:11:29;18.85;;;9.40;;
73776;SDS011;62088;50.240;2.696;2024-01-11T04:13:56;17.52;;;8.80;;
73776;SDS011;62088;50.240;2.696;2024-01-11T04:16:24;20.35;;;9.27;;
73776;SDS011;62088;50.240;2.696;2024-01-11T04:18:51;17.40;;;9.02;;
73776;SDS011;62088;50.240;2.696;2024-01-11T04:21:22;18.48;;;9.57;;
73776;SDS011;62088;50.240;2.696;2024-01-11T04:23:50;13.63;;;7.05;;
73776;SDS011;62088;50.240;2.696;2024-01-11T04:26:17;18.55;;;8.20;;
73776;SDS011;62088;50.240;2.696;2024-01-11T04:28:45;17.08;;;9.50;;
73776;SDS011;62088;50.240;2.696;2024-01-11T04:31:13;20.60;;;9.18;;
73776;SDS011;62088;50.240;2.696;2024-01-11T04:33:41;24.67;;;9.30;;
73776;SDS011;62088;50.240;2.696;2024-01-11T04:36:08;18.77;;;10.68;;
73776;SDS011;62088;50.240;2.696;2024-01-11T04:38:36;16.05;;;8.60;;
73776;SDS011;62088;50.240;2.696;2024-01-11T04:41:10;19.48;;;9.90;;
73776;SDS011;62088;50.240;2.696;2024-01-11T04:43:39;27.05;;;9.90;;
73776;SDS011;62088;50.240;2.696;2024-01-11T04:46:20;15.75;;;8.73;;
73776;SDS011;62088;50.240;2.696;2024-01-11T04:48:49;17.38;;;8.90;;
73776;SDS011;62088;50.240;2.696;2024-01-11T04:51:17;22.30;;;8.02;;
73776;SDS011;62088;50.240;2.696;2024-01-11T04:53:45;18.30;;;8.27;;
73776;SDS011;62088;50.240;2.696;2024-01-11T04:56:13;17.40;;;9.98;;
73776;SDS011;62088;50.240;2.696;2024-01-11T04:58:42;14.82;;;9.50;;
73776;SDS011;62088;50.240;2.696;2024-01-11T05:01:14;15.43;;;9.27;;
73776;SDS011;62088;50.240;2.696;2024-01-11T05:03:43;19.08;;;9.05;;
73776;SDS011;62088;50.240;2.696;2024-01-11T05:06:21;15.27;;;9.27;;
73776;SDS011;62088;50.240;2.696;2024-01-11T05:08:51;16.33;;;9.70;;
73776;SDS011;62088;50.240;2.696;2024-01-11T05:11:20;21.38;;;10.05;;
73776;SDS011;62088;50.240;2.696;2024-01-11T05:13:51;22.35;;;10.23;;
73776;SDS011;62088;50.240;2.696;2024-01-11T05:16:25;18.80;;;9.30;;
73776;SDS011;62088;50.240;2.696;2024-01-11T05:18:54;20.92;;;9.88;;
73776;SDS011;62088;50.240;2.696;2024-01-11T05:21:23;19.60;;;8.88;;
73776;SDS011;62088;50.240;2.696;2024-01-11T05:23:50;17.80;;;9.40;;
73776;SDS011;62088;50.240;2.696;2024-01-11T05:26:19;20.35;;;8.77;;
73776;SDS011;62088;50.240;2.696;2024-01-11T05:28:47;15.32;;;8.20;;
73776;SDS011;62088;50.240;2.696;2024-01-11T05:31:14;21.65;;;8.40;;
73776;SDS011;62088;50.240;2.696;2024-01-11T05:33:43;20.40;;;8.63;;
73776;SDS011;62088;50.240;2.696;2024-01-11T05:36:11;13.52;;;8.77;;
73776;SDS011;62088;50.240;2.696;2024-01-11T05:38:39;17.30;;;8.57;;
73776;SDS011;62088;50.240;2.696;2024-01-11T05:41:07;34.00;;;9.57;;
73776;SDS011;62088;50.240;2.696;2024-01-11T05:43:37;17.15;;;8.15;;
73776;SDS011;62088;50.240;2.696;2024-01-11T05:46:06;18.75;;;9.15;;
73776;SDS011;62088;50.240;2.696;2024-01-11T05:48:33;27.30;;;8.63;;
73776;SDS011;62088;50.240;2.696;2024-01-11T05:51:01;21.77;;;9.98;;
73776;SDS011;62088;50.240;2.696;2024-01-11T05:53:28;21.50;;;10.02;;
73776;SDS011;62088;50.240;2.696;2024-01-11T05:55:55;16.55;;;9.00;;
73776;SDS011;62088;50.240;2.696;2024-01-11T05:58:23;13.82;;;7.60;;
73776;SDS011;62088;50.240;2.696;2024-01-11T06:00:50;22.45;;;8.90;;
73776;SDS011;62088;50.240;2.696;2024-01-11T06:03:17;20.65;;;9.10;;
73776;SDS011;62088;50.240;2.696;2024-01-11T06:05:44;20.38;;;9.45;;
73776;SDS011;62088;50.240;2.696;2024-01-11T06:08:11;16.17;;;8.85;;
73776;SDS011;62088;50.240;2.696;2024-01-11T06:10:39;21.80;;;9.43;;
73776;SDS011;62088;50.240;2.696;2024-01-11T06:13:06;18.52;;;9.35;;
73776;SDS011;62088;50.240;2.696;2024-01-11T06:15:33;11.70;;;8.18;;
73776;SDS011;62088;50.240;2.696;2024-01-11T06:18:00;15.15;;;8.02;;
73776;SDS011;62088;50.240;2.696;2024-01-11T06:20:28;25.52;;;8.55;;
73776;SDS011;62088;50.240;2.696;2024-01-11T06:22:55;17.73;;;8.23;;
73776;SDS011;62088;50.240;2.696;2024-01-11T06:25:22;18.63;;;8.88;;
73776;SDS011;62088;50.240;2.696;2024-01-11T06:27:49;20.40;;;8.30;;
73776;SDS011;62088;50.240;2.696;2024-01-11T06:30:16;20.15;;;8.48;;
73776;SDS011;62088;50.240;2.696;2024-01-11T06:32:44;16.92;;;8.73;;
73776;SDS011;62088;50.240;2.696;2024-01-11T06:35:11;21.55;;;9.35;;
73776;SDS011;62088;50.240;2.696;2024-01-11T06:37:38;17.00;;;8.00;;
73776;SDS011;62088;50.240;2.696;2024-01-11T06:40:06;15.95;;;9.80;;
73776;SDS011;62088;50.240;2.696;2024-01-11T06:42:34;19.67;;;9.35;;
73776;SDS011;62088;50.240;2.696;2024-01-11T06:45:02;23.83;;;9.98;;
73776;SDS011;62088;50.240;2.696;2024-01-11T06:47:30;18.73;;;9.13;;
73776;SDS011;62088;50.240;2.696;2024-01-11T06:49:57;19.38;;;10.05;;
73776;SDS011;62088;50.240;2.696;2024-01-11T06:52:26;17.40;;;9.25;;
73776;SDS011;62088;50.240;2.696;2024-01-11T06:54:53;15.57;;;8.45;;
73776;SDS011;62088;50.240;2.696;2024-01-11T06:57:20;23.77;;;10.02;;
73776;SDS011;62088;50.240;2.696;2024-01-11T06:59:47;15.55;;;8.68;;
73776;SDS011;62088;50.240;2.696;2024-01-11T07:02:15;14.20;;;7.80;;
73776;SDS011;62088;50.240;2.696;2024-01-11T07:04:43;25.02;;;10.50;;
73776;SDS011;62088;50.240;2.696;2024-01-11T07:07:11;25.17;;;11.05;;
73776;SDS011;62088;50.240;2.696;2024-01-11T07:09:38;21.83;;;10.10;;
73776;SDS011;62088;50.240;2.696;2024-01-11T07:12:05;21.33;;;9.30;;
73776;SDS011;62088;50.240;2.696;2024-01-11T07:14:51;22.13;;;10.20;;
73776;SDS011;62088;50.240;2.696;2024-01-11T07:17:18;12.48;;;7.32;;
73776;SDS011;62088;50.240;2.696;2024-01-11T07:19:45;16.05;;;8.57;;
73776;SDS011;62088;50.240;2.696;2024-01-11T07:22:32;21.85;;;8.40;;
73776;SDS011;62088;50.240;2.696;2024-01-11T07:24:59;21.58;;;10.00;;
73776;SDS011;62088;50.240;2.696;2024-01-11T07:27:26;14.10;;;7.70;;
73776;SDS011;62088;50.240;2.696;2024-01-11T07:29:53;20.30;;;10.02;;
73776;SDS011;62088;50.240;2.696;2024-01-11T07:32:20;26.25;;;9.13;;
73776;SDS011;62088;50.240;2.696;2024-01-11T07:34:47;19.08;;;9.45;;
73776;SDS011;62088;50.240;2.696;2024-01-11T07:37:15;21.45;;;10.63;;
73776;SDS011;62088;50.240;2.696;2024-01-11T07:39:42;18.17;;;8.77;;
73776;SDS011;62088;50.240;2.696;2024-01-11T07:42:09;17.92;;;10.20;;
73776;SDS011;62088;50.240;2.696;2024-01-11T07:44:36;17.98;;;9.70;;
73776;SDS011;62088;50.240;2.696;2024-01-11T07:47:04;20.90;;;9.75;;
73776;SDS011;62088;50.240;2.696;2024-01-11T07:49:31;23.50;;;10.70;;
73776;SDS011;62088;50.240;2.696;2024-01-11T07:51:58;16.42;;;8.48;;
73776;SDS011;62088;50.240;2.696;2024-01-11T07:54:26;15.57;;;7.80;;
73776;SDS011;62088;50.240;2.696;2024-01-11T07:56:53;16.38;;;10.25;;
73776;SDS011;62088;50.240;2.696;2024-01-11T07:59:20;17.98;;;9.30;;
73776;SDS011;62088;50.240;2.696;2024-01-11T08:01:47;17.88;;;8.68;;
73776;SDS011;62088;50.240;2.696;2024-01-11T08:04:14;13.07;;;7.40;;
73776;SDS011;62088;50.240;2.696;2024-01-11T08:06:41;18.35;;;9.95;;
73776;SDS011;62088;50.240;2.696;2024-01-11T08:09:10;23.65;;;10.10;;
73776;SDS011;62088;50.240;2.696;2024-01-11T08:11:37;15.43;;;8.48;;
73776;SDS011;62088;50.240;2.696;2024-01-11T08:14:09;21.42;;;11.30;;
73776;SDS011;62088;50.240;2.696;2024-01-11T08:16:36;18.92;;;9.40;;
73776;SDS011;62088;50.240;2.696;2024-01-11T08:19:04;21.77;;;9.25;;
73776;SDS011;62088;50.240;2.696;2024-01-11T08:21:31;16.50;;;9.80;;
73776;SDS011;62088;50.240;2.696;2024-01-11T08:23:58;17.95;;;8.95;;
73776;SDS011;62088;50.240;2.696;2024-01-11T08:26:29;21.05;;;10.43;;
73776;SDS011;62088;50.240;2.696;2024-01-11T08:28:57;17.15;;;9.05;;
73776;SDS011;62088;50.240;2.696;2024-01-11T08:31:25;29.95;;;10.25;;
73776;SDS011;62088;50.240;2.696;2024-01-11T08:33:52;16.63;;;10.50;;
73776;SDS011;62088;50.240;2.696;2024-01-11T08:36:20;19.63;;;10.10;;
73776;SDS011;62088;50.240;2.696;2024-01-11T08:38:48;15.18;;;9.48;;
73776;SDS011;62088;50.240;2.696;2024-01-11T08:41:16;21.65;;;10.25;;
73776;SDS011;62088;50.240;2.696;2024-01-11T08:43:43;21.00;;;9.40;;
73776;SDS011;62088;50.240;2.696;2024-01-11T08:46:10;15.68;;;7.63;;
73776;SDS011;62088;50.240;2.696;2024-01-11T08:48:37;27.48;;;11.13;;
73776;SDS011;62088;50.240;2.696;2024-01-11T08:51:04;20.70;;;10.35;;
73776;SDS011;62088;50.240;2.696;2024-01-11T08:53:32;26.83;;;9.15;;
73776;SDS011;62088;50.240;2.696;2024-01-11T08:56:00;18.30;;;10.80;;
73776;SDS011;62088;50.240;2.696;2024-01-11T08:58:27;17.95;;;11.48;;
73776;SDS011;62088;50.240;2.696;2024-01-11T09:00:54;21.20;;;9.73;;
73776;SDS011;62088;50.240;2.696;2024-01-11T09:03:22;30.25;;;9.90;;
73776;SDS011;62088;50.240;2.696;2024-01-11T09:05:49;23.98;;;11.55;;
73776;SDS011;62088;50.240;2.696;2024-01-11T09:08:17;19.83;;;11.30;;
73776;SDS011;62088;50.240;2.696;2024-01-11T09:10:44;23.08;;;10.13;;
73776;SDS011;62088;50.240;2.696;2024-01-11T09:13:11;18.00;;;8.98;;
73776;SDS011;62088;50.240;2.696;2024-01-11T09:15:40;22.67;;;9.38;;
73776;SDS011;62088;50.240;2.696;2024-01-11T09:18:08;16.88;;;9.90;;
73776;SDS011;62088;50.240;2.696;2024-01-11T09:20:35;22.98;;;11.27;;
73776;SDS011;62088;50.240;2.696;2024-01-11T09:23:03;23.88;;;11.80;;
73776;SDS011;62088;50.240;2.696;2024-01-11T09:25:30;17.80;;;10.65;;
73776;SDS011;62088;50.240;2.696;2024-01-11T09:27:57;25.42;;;11.30;;
73776;SDS011;62088;50.240;2.696;2024-01-11T09:30:25;30.45;;;11.75;;
73776;SDS011;62088;50.240;2.696;2024-01-11T09:32:52;25.30;;;11.63;;
73776;SDS011;62088;50.240;2.696;2024-01-11T09:35:21;29.80;;;11.77;;
73776;SDS011;62088;50.240;2.696;2024-01-11T09:37:49;35.53;;;14.38;;
73776;SDS011;62088;50.240;2.696;2024-01-11T09:40:17;23.38;;;12.20;;
73776;SDS011;62088;50.240;2.696;2024-01-11T09:42:45;19.83;;;10.60;;
73776;SDS011;62088;50.240;2.696;2024-01-11T09:45:13;25.73;;;12.10;;
73776;SDS011;62088;50.240;2.696;2024-01-11T09:47:44;34.65;;;12.40;;
73776;SDS011;62088;50.240;2.696;2024-01-11T09:50:14;34.72;;;12.52;;
73776;SDS011;62088;50.240;2.696;2024-01-11T09:52:48;14.18;;;9.35;;
73776;SDS011;62088;50.240;2.696;2024-01-11T09:55:17;22.90;;;11.80;;
73776;SDS011;62088;50.240;2.696;2024-01-11T09:57:46;33.22;;;11.70;;
73776;SDS011;62088;50.240;2.696;2024-01-11T10:00:24;29.02;;;13.45;;
73776;SDS011;62088;50.240;2.696;2024-01-11T10:02:53;24.38;;;12.00;;
73776;SDS011;62088;50.240;2.696;2024-01-11T10:05:21;23.38;;;12.55;;
73776;SDS011;62088;50.240;2.696;2024-01-11T10:07:48;29.05;;;13.32;;
73776;SDS011;62088;50.240;2.696;2024-01-11T10:10:16;27.33;;;13.80;;
73776;SDS011;62088;50.240;2.696;2024-01-11T10:12:43;29.27;;;11.60;;
73776;SDS011;62088;50.240;2.696;2024-01-11T10:15:11;21.80;;;13.57;;
73776;SDS011;62088;50.240;2.696;2024-01-11T10:17:58;28.20;;;13.73;;
73776;SDS011;62088;50.240;2.696;2024-01-11T10:20:27;29.20;;;14.68;;
73776;SDS011;62088;50.240;2.696;2024-01-11T10:22:57;29.20;;;13.48;;
73776;SDS011;62088;50.240;2.696;2024-01-11T10:25:25;39.15;;;16.48;;
73776;SDS011;62088;50.240;2.696;2024-01-11T10:27:53;24.65;;;13.25;;
73776;SDS011;62088;50.240;2.696;2024-01-11T10:30:20;23.98;;;13.30;;
73776;SDS011;62088;50.240;2.696;2024-01-11T10:32:49;21.73;;;13.27;;
73776;SDS011;62088;50.240;2.696;2024-01-11T10:35:17;21.40;;;12.38;;
73776;SDS011;62088;50.240;2.696;2024-01-11T10:37:45;22.58;;;13.02;;
73776;SDS011;62088;50.240;2.696;2024-01-11T10:40:15;28.35;;;14.35;;
73776;SDS011;62088;50.240;2.696;2024-01-11T10:42:44;24.45;;;14.00;;
73776;SDS011;62088;50.240;2.696;2024-01-11T10:45:16;23.30;;;13.50;;
73776;SDS011;62088;50.240;2.696;2024-01-11T10:47:54;22.92;;;13.30;;
73776;SDS011;62088;50.240;2.696;2024-01-11T10:53:03;22.70;;;14.60;;
73776;SDS011;62088;50.240;2.696;2024-01-11T10:55:38;21.98;;;14.23;;
73776;SDS011;62088;50.240;2.696;2024-01-11T10:58:08;24.23;;;14.85;;
73776;SDS011;62088;50.240;2.696;2024-01-11T11:00:37;25.33;;;14.77;;
73776;SDS011;62088;50.240;2.696;2024-01-11T11:03:05;25.77;;;13.07;;
73776;SDS011;62088;50.240;2.696;2024-01-11T11:05:36;24.23;;;13.02;;
73776;SDS011;62088;50.240;2.696;2024-01-11T11:08:04;26.00;;;13.13;;
73776;SDS011;62088;50.240;2.696;2024-01-11T11:10:36;24.23;;;13.50;;
73776;SDS011;62088;50.240;2.696;2024-01-11T11:13:05;30.90;;;14.77;;
73776;SDS011;62088;50.240;2.696;2024-01-11T11:15:33;24.92;;;13.43;;
73776;SDS011;62088;50.240;2.696;2024-01-11T11:18:03;26.83;;;14.05;;
73776;SDS011;62088;50.240;2.696;2024-01-11T11:20:32;28.83;;;14.65;;
73776;SDS011;62088;50.240;2.696;2024-01-11T11:23:18;33.25;;;14.45;;
73776;SDS011;62088;50.240;2.696;2024-01-11T11:25:46;33.55;;;16.05;;
73776;SDS011;62088;50.240;2.696;2024-01-11T11:28:17;23.63;;;13.25;;
73776;SDS011;62088;50.240;2.696;2024-01-11T11:30:48;29.50;;;15.63;;
73776;SDS011;62088;50.240;2.696;2024-01-11T11:33:27;22.85;;;13.90;;
73776;SDS011;62088;50.240;2.696;2024-01-11T11:35:57;23.92;;;13.38;;
73776;SDS011;62088;50.240;2.696;2024-01-11T11:38:26;27.88;;;13.57;;
73776;SDS011;62088;50.240;2.696;2024-01-11T11:40:58;24.85;;;13.63;;
73776;SDS011;62088;50.240;2.696;2024-01-11T11:43:27;27.95;;;13.80;;
73776;SDS011;62088;50.240;2.696;2024-01-11T11:45:55;27.65;;;12.65;;
73776;SDS011;62088;50.240;2.696;2024-01-11T11:51:05;24.23;;;12.93;;
73776;SDS011;62088;50.240;2.696;2024-01-11T11:53:33;27.65;;;12.68;;
73776;SDS011;62088;50.240;2.696;2024-01-11T11:56:01;25.40;;;14.00;;
73776;SDS011;62088;50.240;2.696;2024-01-11T11:58:29;22.90;;;12.57;;
73776;SDS011;62088;50.240;2.696;2024-01-11T12:00:57;26.77;;;13.05;;
73776;SDS011;62088;50.240;2.696;2024-01-11T12:03:28;21.25;;;12.75;;
73776;SDS011;62088;50.240;2.696;2024-01-11T12:05:57;22.15;;;13.93;;
73776;SDS011;62088;50.240;2.696;2024-01-11T12:08:25;25.50;;;13.10;;
73776;SDS011;62088;50.240;2.696;2024-01-11T12:10:53;28.02;;;14.35;;
73776;SDS011;62088;50.240;2.696;2024-01-11T12:13:21;26.52;;;13.02;;
73776;SDS011;62088;50.240;2.696;2024-01-11T12:15:48;30.52;;;13.85;;
73776;SDS011;62088;50.240;2.696;2024-01-11T12:18:15;22.88;;;11.57;;
73776;SDS011;62088;50.240;2.696;2024-01-11T12:20:43;21.17;;;12.10;;
73776;SDS011;62088;50.240;2.696;2024-01-11T12:23:10;23.70;;;12.77;;
73776;SDS011;62088;50.240;2.696;2024-01-11T12:25:40;22.23;;;12.25;;
73776;SDS011;62088;50.240;2.696;2024-01-11T12:28:07;25.77;;;12.88;;
73776;SDS011;62088;50.240;2.696;2024-01-11T12:30:35;28.15;;;12.05;;
73776;SDS011;62088;50.240;2.696;2024-01-11T12:33:03;23.83;;;12.27;;
73776;SDS011;62088;50.240;2.696;2024-01-11T12:35:32;22.20;;;12.30;;
73776;SDS011;62088;50.240;2.696;2024-01-11T12:38:08;19.40;;;12.07;;
73776;SDS011;62088;50.240;2.696;2024-01-11T12:40:36;30.33;;;13.32;;
73776;SDS011;62088;50.240;2.696;2024-01-11T12:43:04;28.85;;;11.90;;
73776;SDS011;62088;50.240;2.696;2024-01-11T12:45:32;27.95;;;14.32;;
73776;SDS011;62088;50.240;2.696;2024-01-11T12:47:59;21.45;;;12.60;;
73776;SDS011;62088;50.240;2.696;2024-01-11T12:50:27;25.05;;;14.65;;
73776;SDS011;62088;50.240;2.696;2024-01-11T12:53:05;27.20;;;11.50;;
73776;SDS011;62088;50.240;2.696;2024-01-11T12:55:36;24.20;;;12.02;;
73776;SDS011;62088;50.240;2.696;2024-01-11T12:58:20;24.52;;;12.05;;
73776;SDS011;62088;50.240;2.696;2024-01-11T13:00:48;22.55;;;12.43;;
73776;SDS011;62088;50.240;2.696;2024-01-11T13:03:16;23.20;;;12.55;;
73776;SDS011;62088;50.240;2.696;2024-01-11T13:05:46;26.35;;;12.65;;
73776;SDS011;62088;50.240;2.696;2024-01-11T13:08:14;24.25;;;13.05;;
73776;SDS011;62088;50.240;2.696;2024-01-11T13:10:42;19.95;;;11.80;;
73776;SDS011;62088;50.240;2.696;2024-01-11T13:13:10;21.52;;;12.27;;
73776;SDS011;62088;50.240;2.696;2024-01-11T13:15:37;25.02;;;11.55;;
73776;SDS011;62088;50.240;2.696;2024-01-11T13:18:04;22.95;;;11.55;;
73776;SDS011;62088;50.240;2.696;2024-01-11T13:20:31;19.98;;;11.05;;
73776;SDS011;62088;50.240;2.696;2024-01-11T13:25:43;29.23;;;12.25;;
73776;SDS011;62088;50.240;2.696;2024-01-11T13:28:11;20.00;;;10.13;;
73776;SDS011;62088;50.240;2.696;2024-01-11T13:30:39;19.73;;;10.63;;
73776;SDS011;62088;50.240;2.696;2024-01-11T13:33:08;18.63;;;10.35;;
73776;SDS011;62088;50.240;2.696;2024-01-11T13:35:36;21.00;;;11.90;;
73776;SDS011;62088;50.240;2.696;2024-01-11T13:38:04;20.65;;;11.23;;
73776;SDS011;62088;50.240;2.696;2024-01-11T13:40:32;25.15;;;12.13;;
73776;SDS011;62088;50.240;2.696;2024-01-11T13:42:59;20.17;;;11.73;;
73776;SDS011;62088;50.240;2.696;2024-01-11T13:45:28;17.63;;;11.05;;
73776;SDS011;62088;50.240;2.696;2024-01-11T13:47:59;20.33;;;11.23;;
73776;SDS011;62088;50.240;2.696;2024-01-11T13:50:26;17.85;;;10.40;;
73776;SDS011;62088;50.240;2.696;2024-01-11T13:52:54;20.25;;;10.07;;
73776;SDS011;62088;50.240;2.696;2024-01-11T13:55:21;24.02;;;10.52;;
73776;SDS011;62088;50.240;2.696;2024-01-11T13:58:07;18.30;;;11.07;;
73776;SDS011;62088;50.240;2.696;2024-01-11T14:00:35;17.65;;;10.38;;
73776;SDS011;62088;50.240;2.696;2024-01-11T14:03:02;19.13;;;10.85;;
73776;SDS011;62088;50.240;2.696;2024-01-11T14:05:32;24.05;;;11.80;;
73776;SDS011;62088;50.240;2.696;2024-01-11T14:08:00;20.98;;;10.63;;
73776;SDS011;62088;50.240;2.696;2024-01-11T14:10:28;25.98;;;10.52;;
73776;SDS011;62088;50.240;2.696;2024-01-11T14:12:55;20.77;;;12.05;;
73776;SDS011;62088;50.240;2.696;2024-01-11T14:15:22;20.02;;;11.07;;
73776;SDS011;62088;50.240;2.696;2024-01-11T14:17:50;16.85;;;10.05;;
73776;SDS011;62088;50.240;2.696;2024-01-11T14:20:18;22.20;;;10.98;;
73776;SDS011;62088;50.240;2.696;2024-01-11T14:22:45;19.48;;;11.23;;
73776;SDS011;62088;50.240;2.696;2024-01-11T14:25:18;20.38;;;11.00;;
73776;SDS011;62088;50.240;2.696;2024-01-11T14:27:47;20.35;;;10.27;;
73776;SDS011;62088;50.240;2.696;2024-01-11T14:30:14;18.38;;;10.43;;
73776;SDS011;62088;50.240;2.696;2024-01-11T14:32:42;19.00;;;10.43;;
73776;SDS011;62088;50.240;2.696;2024-01-11T14:35:09;19.33;;;10.27;;
73776;SDS011;62088;50.240;2.696;2024-01-11T14:37:38;18.33;;;10.15;;
73776;SDS011;62088;50.240;2.696;2024-01-11T14:40:07;17.95;;;10.38;;
73776;SDS011;62088;50.240;2.696;2024-01-11T14:42:38;18.17;;;9.88;;